This is the latest recevied weather packets stored in our database for station/object S56IAR-13. If no packets are shown the sender has not sent any weather packets the latest 10 day(s).
| Time | Temp. | Humidity | Pressure | Rain* | Wind** | Luminosity | Snow |
|---|---|---|---|---|---|---|---|
| 1777948634 | 7.22° C | 93% | 961.4 hPa | 0 mm | - | 0 W/m² | - |
| 1777947005 | 7.78° C | 91% | 961.9 hPa | 0 mm | - | 0 W/m² | - |
| 1777946105 | 7.78° C | 91% | 961.6 hPa | 0 mm | - | 0 W/m² | - |
| 1777943103 | 8.89° C | 87% | 962.1 hPa | 0 mm | - | 0 W/m² | - |
| 1777939035 | 10.56° C | 82% | 962.6 hPa | 0 mm | - | 0 W/m² | - |
| 1777938603 | 10.56° C | 81% | 962.6 hPa | 0 mm | - | 0 W/m² | - |
| 1777937705 | 10.56° C | 79% | 962.8 hPa | 0 mm | - | 0 W/m² | - |
| 1777934534 | 11.11° C | 78% | 963.1 hPa | 0 mm | - | 0 W/m² | - |
| 1777934104 | 11.11° C | 77% | 963.2 hPa | 0 mm | - | 0 W/m² | - |
| 1777933805 | 11.11° C | 78% | 963 hPa | 0 mm | - | 0 W/m² | - |
| 1777929905 | 10° C | 81% | 963.2 hPa | 0 mm | - | 0 W/m² | - |
| 1777928705 | 10.56° C | 80% | 963.5 hPa | 0 mm | - | 0 W/m² | - |
| 1777927933 | 10.56° C | 78% | 963.7 hPa | 0 mm | - | 0 W/m² | - |
| 1777927335 | 10.56° C | 78% | 963.5 hPa | 0 mm | - | 0 W/m² | - |
| 1777925405 | 11.11° C | 77% | 963.5 hPa | 0 mm | - | 0 W/m² | - |
| 1777923003 | 11.67° C | 74% | 963.3 hPa | 0 mm | - | 0 W/m² | - |
| 1777922403 | 12.22° C | 75% | 963.1 hPa | 0 mm | - | 0 W/m² | - |
| 1777920605 | 13.33° C | 72% | 963 hPa | 0 mm | - | 0 W/m² | - |
| 1777918033 | 15.56° C | 63% | 962.8 hPa | 0 mm | - | 4 W/m² | - |
| 1777915505 | 18.89° C | 46% | 962.7 hPa | 0 mm | - | 38 W/m² | - |
| 1777913835 | 19.44° C | 46% | 962.6 hPa | 0 mm | - | 63 W/m² | - |
| 1777911604 | 21.11° C | 41% | 962.4 hPa | 0 mm | - | 174 W/m² | - |
| 1777911305 | 21.67° C | 41% | 962.3 hPa | 0 mm | - | 211 W/m² | - |
| 1777910105 | 20.56° C | 41% | 962.6 hPa | 0 mm | - | 235 W/m² | - |
| 1777907834 | 22.22° C | 37% | 962.9 hPa | 0 mm | - | 378 W/m² | - |
* Rain latest hour (hover to see other rain measurements)
** Current wind speed in m/s (hover to see current wind gust speed)